createdAt,value
2023-05-11T00:00:46.848Z,5.49
2023-05-11T00:03:15.854Z,5.51
2023-05-11T00:05:47.596Z,5.53
2023-05-11T00:08:17.384Z,5.53
2023-05-11T00:10:48.854Z,5.52
2023-05-11T00:13:17.336Z,5.52
2023-05-11T00:15:45.127Z,5.53
2023-05-11T00:18:13.391Z,5.57
2023-05-11T00:20:41.542Z,5.61
2023-05-11T00:23:09.328Z,5.63
2023-05-11T00:25:37.289Z,5.64
2023-05-11T00:28:05.210Z,5.66
2023-05-11T00:30:33.735Z,5.64
2023-05-11T00:33:01.722Z,5.56
2023-05-11T00:35:30.764Z,5.54
2023-05-11T00:37:59.188Z,5.55
2023-05-11T00:40:27.440Z,5.56
2023-05-11T00:42:55.506Z,5.59
2023-05-11T00:45:24.198Z,5.63
2023-05-11T00:47:52.032Z,5.64
2023-05-11T00:50:20.745Z,5.63
2023-05-11T00:52:48.935Z,5.60
2023-05-11T00:55:19.447Z,5.55
2023-05-11T00:57:47.840Z,5.50
2023-05-11T01:00:15.893Z,5.48
2023-05-11T01:02:44.244Z,5.45
2023-05-11T01:05:12.856Z,5.38
2023-05-11T01:07:43.519Z,5.32
2023-05-11T01:10:11.663Z,5.27
2023-05-11T01:12:57.138Z,5.22
2023-05-11T01:15:44.476Z,5.17
2023-05-11T01:18:13.243Z,5.07
2023-05-11T01:20:43.475Z,4.97
2023-05-11T01:23:18.416Z,4.92
2023-05-11T01:26:07.378Z,4.86
2023-05-11T01:28:50.079Z,4.80
2023-05-11T01:31:18.183Z,4.77
2023-05-11T01:33:55.538Z,4.73
2023-05-11T01:36:28.593Z,4.68
2023-05-11T01:38:58.723Z,4.63
2023-05-11T01:41:28.478Z,4.58
2023-05-11T01:43:58.903Z,4.56
2023-05-11T01:46:27.519Z,4.53
2023-05-11T01:48:56.847Z,4.47
2023-05-11T01:51:26.059Z,4.45
2023-05-11T01:53:54.949Z,4.43
2023-05-11T01:56:24.819Z,4.40
2023-05-11T01:58:54.480Z,4.40
2023-05-11T02:01:23.236Z,4.36
2023-05-11T02:03:52.246Z,4.31
2023-05-11T02:06:22.667Z,4.26
2023-05-11T02:08:51.254Z,4.24
2023-05-11T02:11:20.727Z,4.25
2023-05-11T02:13:50.770Z,4.31
2023-05-11T02:16:19.859Z,4.31
2023-05-11T02:18:49.203Z,4.29
2023-05-11T02:21:17.752Z,4.30
2023-05-11T02:23:47.068Z,4.30
2023-05-11T02:26:16.806Z,4.28
2023-05-11T02:28:44.918Z,4.17
2023-05-11T02:31:17.768Z,4.04
2023-05-11T02:33:51.593Z,4.03
2023-05-11T02:36:22.486Z,4.10
2023-05-11T02:38:54.317Z,4.16
2023-05-11T02:41:28.018Z,4.22
2023-05-11T02:43:58.756Z,4.24
2023-05-11T02:46:28.581Z,4.20
2023-05-11T02:48:58.074Z,4.16
2023-05-11T02:51:29.139Z,4.13
2023-05-11T02:53:59.427Z,4.15
2023-05-11T02:56:29.545Z,4.18
2023-05-11T02:58:58.234Z,4.22
2023-05-11T03:01:29.639Z,4.22
2023-05-11T03:03:58.720Z,4.18
2023-05-11T03:06:28.178Z,4.21
2023-05-11T03:08:56.155Z,4.22
2023-05-11T03:11:25.931Z,4.22
2023-05-11T03:13:54.343Z,4.24
2023-05-11T03:16:22.832Z,4.18
2023-05-11T03:18:51.640Z,4.10
2023-05-11T03:21:22.952Z,4.10
2023-05-11T03:23:51.221Z,4.28
2023-05-11T03:26:19.239Z,4.81
2023-05-11T03:28:48.494Z,5.43
2023-05-11T03:31:16.440Z,5.96
2023-05-11T03:33:45.155Z,6.41
2023-05-11T03:36:14.357Z,6.81
2023-05-11T03:38:43.336Z,7.08
2023-05-11T03:41:15.724Z,7.31
2023-05-11T03:43:45.510Z,7.37
2023-05-11T03:46:14.033Z,7.25
2023-05-11T03:48:42.760Z,7.21
2023-05-11T03:51:11.251Z,7.26
2023-05-11T03:53:39.452Z,7.41
2023-05-11T03:56:08.433Z,7.46
2023-05-11T03:58:43.165Z,7.56
2023-05-11T04:01:13.095Z,7.63
2023-05-11T04:03:49.288Z,7.76
2023-05-11T04:06:18.250Z,7.94
2023-05-11T04:08:47.975Z,8.09
2023-05-11T04:11:16.007Z,8.23
2023-05-11T04:13:44.055Z,8.30
2023-05-11T04:16:12.044Z,8.48
2023-05-11T04:18:40.260Z,8.61
2023-05-11T04:21:08.302Z,8.96
2023-05-11T04:23:36.270Z,9.37
2023-05-11T04:26:04.129Z,9.64
2023-05-11T04:28:32.105Z,9.84
2023-05-11T04:31:00.035Z,10.10
2023-05-11T04:33:28.014Z,10.21
2023-05-11T04:35:56.859Z,10.40
2023-05-11T04:38:25.786Z,10.61
2023-05-11T04:40:54.700Z,10.92
2023-05-11T04:43:23.583Z,11.33
2023-05-11T04:45:51.751Z,11.56
2023-05-11T04:48:27.917Z,11.70
2023-05-11T04:50:55.996Z,11.76
2023-05-11T04:53:27.366Z,12.03
2023-05-11T04:55:55.619Z,12.34
2023-05-11T04:58:23.576Z,12.62
2023-05-11T05:00:51.427Z,12.63
2023-05-11T05:03:20.571Z,12.68
2023-05-11T05:05:50.665Z,12.84
2023-05-11T05:08:18.948Z,13.02
2023-05-11T05:10:47.248Z,13.15
2023-05-11T05:13:17.021Z,13.23
2023-05-11T05:15:44.988Z,13.42
2023-05-11T05:18:13.154Z,13.57
2023-05-11T05:20:41.955Z,13.70
2023-05-11T05:23:09.832Z,14.15
2023-05-11T05:25:37.789Z,14.40
2023-05-11T05:28:07.497Z,14.55
2023-05-11T05:30:37.385Z,14.74
2023-05-11T05:33:05.743Z,14.86
2023-05-11T05:35:35.147Z,14.85
2023-05-11T05:38:03.055Z,14.49
2023-05-11T05:40:31.167Z,14.09
2023-05-11T05:42:59.337Z,13.73
2023-05-11T05:45:27.068Z,13.54
2023-05-11T05:47:55.675Z,13.48
2023-05-11T05:50:23.728Z,13.52
2023-05-11T05:52:52.308Z,13.45
2023-05-11T05:55:22.523Z,13.33
2023-05-11T05:57:51.450Z,13.18
2023-05-11T06:00:20.061Z,13.18
2023-05-11T06:02:53.457Z,13.24
2023-05-11T06:05:25.509Z,13.22
2023-05-11T06:08:08.407Z,13.35
2023-05-11T06:10:39.074Z,13.42
2023-05-11T06:13:08.331Z,13.56
2023-05-11T06:15:36.584Z,13.83
2023-05-11T06:18:10.022Z,14.02
2023-05-11T06:20:37.951Z,14.05
2023-05-11T06:23:06.420Z,14.16
2023-05-11T06:25:37.868Z,14.31
2023-05-11T06:28:06.555Z,14.34
2023-05-11T06:30:35.369Z,14.46
2023-05-11T06:33:03.539Z,14.62
2023-05-11T06:35:31.364Z,14.67
2023-05-11T06:37:59.866Z,14.80
2023-05-11T06:40:28.017Z,15.00
2023-05-11T06:42:56.213Z,15.05
2023-05-11T06:45:24.523Z,15.21
2023-05-11T06:47:54.447Z,15.26
2023-05-11T06:50:25.836Z,15.37
2023-05-11T06:52:55.551Z,15.51
2023-05-11T06:55:23.475Z,15.56
2023-05-11T06:57:51.905Z,15.54
2023-05-11T07:00:20.134Z,15.61
2023-05-11T07:02:48.337Z,15.65
2023-05-11T07:05:16.743Z,15.67
2023-05-11T07:07:44.505Z,15.72
2023-05-11T07:10:12.456Z,15.78
2023-05-11T07:12:40.299Z,15.76
2023-05-11T07:15:08.581Z,15.83
2023-05-11T07:17:36.528Z,15.93
2023-05-11T07:20:04.739Z,16.10
2023-05-11T07:22:32.551Z,16.29
2023-05-11T07:25:00.573Z,16.50
2023-05-11T07:27:28.547Z,16.58
2023-05-11T07:29:56.457Z,16.58
2023-05-11T07:32:24.979Z,16.60
2023-05-11T07:34:52.855Z,16.52
2023-05-11T07:37:20.998Z,16.55
2023-05-11T07:39:49.142Z,16.54
2023-05-11T07:42:16.992Z,16.56
2023-05-11T07:44:44.828Z,16.77
2023-05-11T07:47:13.344Z,16.92
2023-05-11T07:49:43.969Z,16.87
2023-05-11T07:52:12.318Z,16.88
2023-05-11T07:54:40.471Z,17.08
2023-05-11T07:57:09.113Z,17.13
2023-05-11T07:59:37.870Z,17.15
2023-05-11T08:02:06.588Z,17.41
2023-05-11T08:04:35.028Z,17.68
2023-05-11T08:07:03.819Z,17.82
2023-05-11T08:09:32.494Z,17.91
2023-05-11T08:12:01.847Z,18.12
2023-05-11T08:14:29.727Z,18.27
2023-05-11T08:16:57.534Z,18.24
2023-05-11T08:19:25.407Z,18.39
2023-05-11T08:21:53.527Z,18.50
2023-05-11T08:24:21.374Z,18.69
2023-05-11T08:26:49.911Z,18.73
2023-05-11T08:29:17.785Z,18.80
2023-05-11T08:31:45.836Z,19.04
2023-05-11T08:34:19.092Z,18.92
2023-05-11T08:36:47.914Z,18.87
2023-05-11T08:39:21.526Z,18.62
2023-05-11T08:42:02.812Z,18.47
2023-05-11T08:44:32.877Z,18.72
2023-05-11T08:47:18.969Z,18.70
2023-05-11T08:49:48.850Z,18.70
2023-05-11T08:52:18.297Z,18.98
2023-05-11T08:54:46.748Z,19.24
2023-05-11T08:57:14.798Z,19.55
2023-05-11T08:59:45.121Z,19.79
2023-05-11T09:02:16.958Z,19.71
2023-05-11T09:04:48.192Z,19.61
2023-05-11T09:07:18.314Z,19.35
2023-05-11T09:09:47.685Z,18.79
2023-05-11T09:12:16.445Z,18.50
2023-05-11T09:14:45.006Z,18.59
2023-05-11T09:17:13.138Z,18.69
2023-05-11T09:19:57.400Z,18.95
2023-05-11T09:22:25.641Z,19.22
2023-05-11T09:24:54.498Z,19.36
2023-05-11T09:27:24.790Z,19.76
2023-05-11T09:29:55.462Z,20.10
2023-05-11T09:32:23.873Z,20.36
2023-05-11T09:34:51.994Z,20.67
2023-05-11T09:37:19.871Z,20.88
2023-05-11T09:42:26.471Z,20.72
2023-05-11T09:44:54.829Z,20.60
2023-05-11T09:47:22.847Z,20.42
2023-05-11T09:49:50.734Z,20.12
2023-05-11T09:52:18.993Z,19.82
2023-05-11T09:54:47.976Z,19.68
2023-05-11T09:57:29.418Z,19.52
2023-05-11T09:59:58.706Z,19.61
2023-05-11T10:02:27.177Z,19.67
2023-05-11T10:04:56.704Z,19.38
2023-05-11T10:07:24.470Z,19.19
2023-05-11T10:09:56.987Z,19.60
2023-05-11T10:12:25.928Z,20.02
2023-05-11T10:15:01.575Z,20.33
2023-05-11T10:17:30.834Z,20.77
2023-05-11T10:19:59.454Z,20.84
2023-05-11T10:22:28.190Z,20.99
2023-05-11T10:24:59.699Z,20.86
2023-05-11T10:27:28.177Z,20.22
2023-05-11T10:29:58.403Z,19.60
2023-05-11T10:32:27.931Z,19.48
2023-05-11T10:34:56.608Z,19.48
2023-05-11T10:37:25.872Z,19.20
2023-05-11T10:39:53.796Z,18.93
2023-05-11T10:42:40.456Z,18.86
2023-05-11T10:45:24.072Z,18.54
2023-05-11T10:48:00.892Z,18.42
2023-05-11T10:50:34.990Z,18.56
2023-05-11T10:53:21.803Z,19.03
2023-05-11T10:56:14.033Z,19.09
2023-05-11T10:59:00.638Z,18.93
2023-05-11T11:01:38.331Z,18.85
2023-05-11T11:04:07.621Z,18.80
2023-05-11T11:06:36.844Z,18.82
2023-05-11T11:09:06.244Z,18.87
2023-05-11T11:11:35.958Z,18.85
2023-05-11T11:14:06.094Z,18.98
2023-05-11T11:16:34.534Z,19.23
2023-05-11T11:19:21.238Z,19.55
2023-05-11T11:21:49.113Z,19.60
2023-05-11T11:24:35.746Z,19.46
2023-05-11T11:27:04.607Z,19.40
2023-05-11T11:29:34.049Z,19.27
2023-05-11T11:32:34.657Z,19.05
2023-05-11T11:35:02.504Z,18.79
2023-05-11T11:37:30.691Z,18.70
2023-05-11T11:40:08.890Z,18.66
2023-05-11T11:42:42.925Z,18.65
2023-05-11T11:45:28.249Z,18.80
2023-05-11T11:48:06.292Z,18.74
2023-05-11T11:50:34.425Z,18.61
2023-05-11T11:53:02.240Z,18.89
2023-05-11T11:55:47.174Z,19.18
2023-05-11T11:58:33.808Z,19.14
2023-05-11T12:01:02.122Z,19.15
2023-05-11T12:03:30.474Z,19.05
2023-05-11T12:06:01.432Z,18.98
2023-05-11T12:08:31.285Z,18.90
2023-05-11T12:10:59.980Z,18.86
2023-05-11T12:13:28.322Z,19.03
2023-05-11T12:16:09.585Z,19.25
2023-05-11T12:18:38.425Z,19.25
2023-05-11T12:21:06.367Z,19.38
2023-05-11T12:23:34.369Z,19.47
2023-05-11T12:26:02.814Z,19.53
2023-05-11T12:28:30.711Z,19.62
2023-05-11T12:31:00.598Z,19.60
2023-05-11T12:33:28.992Z,19.84
2023-05-11T12:35:57.356Z,19.95
2023-05-11T12:38:26.355Z,19.90
2023-05-11T12:40:54.227Z,19.83
2023-05-11T12:43:22.905Z,19.73
2023-05-11T12:45:51.133Z,19.70
2023-05-11T12:48:19.354Z,19.62
2023-05-11T12:50:47.237Z,19.51
2023-05-11T12:53:19.452Z,19.27
2023-05-11T12:55:57.700Z,19.12
2023-05-11T12:58:25.754Z,19.28
2023-05-11T13:00:58.054Z,19.40
2023-05-11T13:03:30.718Z,19.37
2023-05-11T13:06:09.050Z,19.36
2023-05-11T13:08:37.621Z,19.38
2023-05-11T13:11:17.446Z,19.29
2023-05-11T13:13:45.773Z,19.02
2023-05-11T13:16:23.428Z,18.62
2023-05-11T13:19:01.255Z,18.46
2023-05-11T13:21:30.636Z,18.42
2023-05-11T13:23:58.698Z,18.44
2023-05-11T13:26:27.595Z,18.50
2023-05-11T13:29:09.704Z,18.56
2023-05-11T13:31:49.580Z,18.72
2023-05-11T13:34:18.158Z,18.80
2023-05-11T13:36:46.701Z,18.78
2023-05-11T13:39:14.582Z,18.85
2023-05-11T13:41:42.693Z,19.08
2023-05-11T13:44:10.717Z,19.34
2023-05-11T13:46:38.677Z,19.61
2023-05-11T13:49:06.765Z,19.66
2023-05-11T13:51:34.720Z,19.83
2023-05-11T13:54:02.993Z,19.87
2023-05-11T13:56:31.843Z,19.76
2023-05-11T13:59:00.217Z,19.63
2023-05-11T14:01:28.486Z,19.43
2023-05-11T14:03:57.220Z,19.26
2023-05-11T14:06:25.732Z,19.18
2023-05-11T14:08:53.904Z,19.20
2023-05-11T14:11:21.979Z,19.45
2023-05-11T14:13:50.436Z,19.43
2023-05-11T14:16:18.913Z,19.41
2023-05-11T14:18:47.054Z,19.44
2023-05-11T14:21:15.067Z,19.45
2023-05-11T14:23:53.137Z,19.37
2023-05-11T14:26:30.648Z,19.22
2023-05-11T14:28:58.725Z,19.18
2023-05-11T14:31:27.292Z,19.38
2023-05-11T14:33:56.707Z,19.49
2023-05-11T14:36:24.562Z,19.51
2023-05-11T14:38:52.424Z,19.43
2023-05-11T14:41:21.330Z,19.32
2023-05-11T14:43:49.602Z,19.13
2023-05-11T14:46:17.806Z,18.95
2023-05-11T14:48:45.868Z,18.84
2023-05-11T14:51:14.126Z,18.81
2023-05-11T14:53:41.886Z,18.76
2023-05-11T14:56:10.228Z,18.65
2023-05-11T14:58:38.229Z,18.45
2023-05-11T15:01:06.268Z,18.23
2023-05-11T15:03:37.301Z,18.12
2023-05-11T15:06:05.837Z,18.07
2023-05-11T15:08:33.889Z,17.97
2023-05-11T15:11:01.731Z,17.84
2023-05-11T15:13:30.662Z,17.76
2023-05-11T15:15:58.594Z,17.79
2023-05-11T15:18:26.508Z,17.87
2023-05-11T15:20:54.545Z,17.98
2023-05-11T15:23:22.516Z,18.17
2023-05-11T15:25:50.690Z,18.33
2023-05-11T15:28:18.426Z,18.39
2023-05-11T15:30:47.132Z,18.35
2023-05-11T15:33:15.915Z,18.21
2023-05-11T15:35:44.306Z,18.13
2023-05-11T15:38:12.372Z,18.12
2023-05-11T15:40:40.191Z,18.02
2023-05-11T15:43:08.109Z,17.92
2023-05-11T15:45:36.262Z,17.83
2023-05-11T15:48:04.925Z,17.72
2023-05-11T15:50:33.351Z,17.59
2023-05-11T15:53:01.311Z,17.47
2023-05-11T15:55:29.209Z,17.38
2023-05-11T15:57:57.037Z,17.25
2023-05-11T16:00:24.901Z,17.17
2023-05-11T16:02:52.840Z,17.09
2023-05-11T16:05:20.735Z,17.01
2023-05-11T16:07:48.609Z,16.94
2023-05-11T16:10:16.455Z,16.90
2023-05-11T16:12:44.552Z,16.87
2023-05-11T16:15:12.294Z,16.82
2023-05-11T16:17:40.305Z,16.77
2023-05-11T16:20:08.580Z,16.77
2023-05-11T16:22:38.840Z,16.68
2023-05-11T16:25:06.820Z,16.56
2023-05-11T16:27:37.779Z,16.48
2023-05-11T16:30:21.603Z,16.46
2023-05-11T16:32:51.296Z,16.44
2023-05-11T16:35:19.226Z,16.39
2023-05-11T16:37:48.108Z,16.34
2023-05-11T16:40:21.225Z,16.32
2023-05-11T16:42:49.750Z,16.28
2023-05-11T16:45:17.819Z,16.22
2023-05-11T16:47:46.351Z,16.18
2023-05-11T16:50:14.886Z,16.12
2023-05-11T16:52:42.940Z,16.05
2023-05-11T16:55:11.149Z,15.97
2023-05-11T16:57:39.165Z,15.89
2023-05-11T17:00:08.667Z,15.85
2023-05-11T17:02:37.132Z,15.80
2023-05-11T17:05:06.061Z,15.74
2023-05-11T17:07:34.043Z,15.70
2023-05-11T17:10:02.229Z,15.66
2023-05-11T17:12:30.306Z,15.61
2023-05-11T17:14:58.591Z,15.56
2023-05-11T17:17:26.512Z,15.49
2023-05-11T17:19:54.627Z,15.41
2023-05-11T17:22:22.801Z,15.35
2023-05-11T17:24:50.767Z,15.30
2023-05-11T17:27:18.794Z,15.24
2023-05-11T17:29:46.902Z,15.17
2023-05-11T17:32:15.112Z,15.09
2023-05-11T17:34:43.544Z,15.01
2023-05-11T17:37:23.817Z,14.96
2023-05-11T17:39:52.647Z,14.91
2023-05-11T17:42:21.276Z,14.85
2023-05-11T17:44:49.133Z,14.77
2023-05-11T17:47:16.987Z,14.71
2023-05-11T17:49:45.377Z,14.64
2023-05-11T17:52:13.246Z,14.57
2023-05-11T17:54:41.523Z,14.49
2023-05-11T17:57:09.408Z,14.43
2023-05-11T17:59:37.243Z,14.37
2023-05-11T18:02:05.229Z,14.30
2023-05-11T18:04:33.257Z,14.26
2023-05-11T18:07:01.106Z,14.22
2023-05-11T18:09:28.995Z,14.15
2023-05-11T18:11:56.799Z,14.10
2023-05-11T18:14:24.752Z,14.05
2023-05-11T18:16:53.162Z,14.00
2023-05-11T18:19:21.036Z,13.96
2023-05-11T18:21:50.069Z,13.91
2023-05-11T18:24:20.001Z,13.86
2023-05-11T18:26:47.769Z,13.83
2023-05-11T18:29:19.425Z,13.80
2023-05-11T18:31:47.947Z,13.75
2023-05-11T18:34:16.278Z,13.70
2023-05-11T18:36:44.154Z,13.64
2023-05-11T18:39:14.190Z,13.60
2023-05-11T18:41:42.185Z,13.55
2023-05-11T18:44:09.964Z,13.48
2023-05-11T18:46:38.410Z,13.44
2023-05-11T18:49:06.749Z,13.39
2023-05-11T18:51:34.672Z,13.33
2023-05-11T18:54:02.795Z,13.28
2023-05-11T18:56:30.870Z,13.23
2023-05-11T18:58:59.163Z,13.17
2023-05-11T19:01:36.490Z,13.11
2023-05-11T19:04:17.673Z,13.05
2023-05-11T19:06:45.666Z,12.98
2023-05-11T19:09:14.129Z,12.91
2023-05-11T19:11:42.078Z,12.84
2023-05-11T19:14:10.564Z,12.79
2023-05-11T19:16:38.617Z,12.72
2023-05-11T19:19:07.236Z,12.66
2023-05-11T19:21:40.031Z,12.61
2023-05-11T19:24:08.401Z,12.54
2023-05-11T19:26:36.753Z,12.47
2023-05-11T19:29:09.409Z,12.41
2023-05-11T19:31:37.395Z,12.35
2023-05-11T19:34:06.813Z,12.30
2023-05-11T19:36:34.946Z,12.25
2023-05-11T19:39:04.633Z,12.20
2023-05-11T19:41:33.406Z,12.16
2023-05-11T19:44:01.920Z,12.14
2023-05-11T19:46:29.952Z,12.12
2023-05-11T19:48:58.324Z,12.09
2023-05-11T19:51:26.300Z,12.05
2023-05-11T19:53:54.486Z,12.01
2023-05-11T19:56:22.547Z,11.99
2023-05-11T19:58:50.618Z,11.96
2023-05-11T20:01:19.033Z,11.92
2023-05-11T20:03:47.226Z,11.88
2023-05-11T20:06:15.133Z,11.84
2023-05-11T20:08:42.995Z,11.80
2023-05-11T20:11:10.860Z,11.78
2023-05-11T20:13:38.739Z,11.75
2023-05-11T20:16:06.909Z,11.72
2023-05-11T20:18:34.962Z,11.68
2023-05-11T20:21:02.945Z,11.65
2023-05-11T20:23:30.687Z,11.61
2023-05-11T20:25:58.677Z,11.56
2023-05-11T20:28:28.176Z,11.51
2023-05-11T20:30:56.445Z,11.46
2023-05-11T20:35:56.102Z,11.37
2023-05-11T20:38:24.046Z,11.32
2023-05-11T20:40:56.464Z,11.27
2023-05-11T20:43:26.153Z,11.22
2023-05-11T20:45:54.588Z,11.17
2023-05-11T20:48:32.333Z,11.10
2023-05-11T20:51:06.728Z,11.05
2023-05-11T20:53:34.585Z,10.99
2023-05-11T20:56:03.377Z,10.92
2023-05-11T20:58:31.747Z,10.88
2023-05-11T21:00:59.784Z,10.84
2023-05-11T21:03:27.954Z,10.80
2023-05-11T21:05:56.460Z,10.78
2023-05-11T21:08:24.563Z,10.73
2023-05-11T21:10:53.331Z,10.68
2023-05-11T21:13:21.174Z,10.62
2023-05-11T21:15:49.172Z,10.58
2023-05-11T21:18:17.244Z,10.55
2023-05-11T21:20:45.314Z,10.52
2023-05-11T21:23:14.218Z,10.50
2023-05-11T21:25:42.084Z,10.48
2023-05-11T21:28:09.805Z,10.45
2023-05-11T21:30:37.878Z,10.43
2023-05-11T21:33:05.830Z,10.41
2023-05-11T21:35:34.023Z,10.38
2023-05-11T21:38:02.005Z,10.36
2023-05-11T21:40:29.980Z,10.32
2023-05-11T21:42:57.841Z,10.28
2023-05-11T21:45:25.796Z,10.26
2023-05-11T21:47:53.575Z,10.23
2023-05-11T21:50:21.897Z,10.20
2023-05-11T21:52:49.789Z,10.18
2023-05-11T21:55:17.851Z,10.14
2023-05-11T21:57:45.745Z,10.10
2023-05-11T22:00:18.707Z,10.06
2023-05-11T22:02:47.174Z,10.01
2023-05-11T22:05:15.155Z,9.98
2023-05-11T22:07:43.977Z,9.95
2023-05-11T22:10:12.229Z,9.93
2023-05-11T22:12:40.230Z,9.90
2023-05-11T22:15:08.942Z,9.88
2023-05-11T22:17:37.380Z,9.85
2023-05-11T22:20:06.724Z,9.82
2023-05-11T22:22:35.068Z,9.81
2023-05-11T22:25:03.429Z,9.78
2023-05-11T22:27:32.235Z,9.76
2023-05-11T22:30:00.212Z,9.73
2023-05-11T22:32:28.310Z,9.70
2023-05-11T22:34:57.611Z,9.67
2023-05-11T22:37:25.841Z,9.65
2023-05-11T22:39:54.418Z,9.63
2023-05-11T22:42:22.707Z,9.59
2023-05-11T22:44:50.779Z,9.57
2023-05-11T22:47:18.648Z,9.56
2023-05-11T22:49:46.408Z,9.56
2023-05-11T22:52:14.263Z,9.54
2023-05-11T22:54:42.032Z,9.52
2023-05-11T22:57:11.842Z,9.50
2023-05-11T22:59:39.810Z,9.48
2023-05-11T23:02:07.809Z,9.45
2023-05-11T23:04:35.851Z,9.42
2023-05-11T23:07:05.556Z,9.38
2023-05-11T23:09:34.276Z,9.35
2023-05-11T23:12:03.036Z,9.31
2023-05-11T23:14:30.890Z,9.28
2023-05-11T23:16:58.762Z,9.25
2023-05-11T23:19:26.947Z,9.23
2023-05-11T23:21:54.806Z,9.22
2023-05-11T23:24:22.888Z,9.18
2023-05-11T23:26:50.854Z,9.14
2023-05-11T23:29:18.831Z,9.10
2023-05-11T23:31:46.797Z,9.05
2023-05-11T23:34:14.898Z,8.99
2023-05-11T23:36:42.917Z,8.94
2023-05-11T23:39:10.782Z,8.85
2023-05-11T23:41:38.939Z,8.71
2023-05-11T23:44:06.751Z,8.58
2023-05-11T23:46:34.846Z,8.47
2023-05-11T23:49:03.181Z,8.41
2023-05-11T23:51:31.134Z,8.36
2023-05-11T23:53:59.684Z,8.31
2023-05-11T23:56:27.782Z,8.24
2023-05-11T23:58:55.649Z,8.19
